sensor_id;sensor_type;location;lat;lon;timestamp;pressure;altitude;pressure_sealevel;temperature;humidity
1371;BME280;14306;49.942;11.570;2023-08-31T15:20:51;97309.53;;;22.40;61.51
1371;BME280;14306;49.942;11.570;2023-08-31T15:23:18;97310.84;;;22.57;61.56
1371;BME280;14306;49.942;11.570;2023-08-31T15:25:47;97296.97;;;22.03;62.66
1371;BME280;14306;49.942;11.570;2023-08-31T15:28:14;97298.91;;;21.99;62.59
1371;BME280;14306;49.942;11.570;2023-08-31T15:30:42;97295.13;;;21.74;62.31
1371;BME280;14306;49.942;11.570;2023-08-31T15:33:11;97303.44;;;21.77;61.19
1371;BME280;14306;49.942;11.570;2023-08-31T15:35:40;97289.06;;;21.61;59.88
1371;BME280;14306;49.942;11.570;2023-08-31T15:38:10;97298.00;;;21.51;60.28
1371;BME280;14306;49.942;11.570;2023-08-31T15:40:39;97289.91;;;21.69;60.33
1371;BME280;14306;49.942;11.570;2023-08-31T15:43:16;97307.31;;;21.73;60.12
1371;BME280;14306;49.942;11.570;2023-08-31T15:45:46;97308.56;;;21.79;59.73
1371;BME280;14306;49.942;11.570;2023-08-31T15:48:17;97303.13;;;21.49;60.49
1371;BME280;14306;49.942;11.570;2023-08-31T15:50:45;97289.59;;;21.08;61.85
1371;BME280;14306;49.942;11.570;2023-08-31T15:53:14;97296.56;;;21.28;61.20
1371;BME280;14306;49.942;11.570;2023-08-31T15:55:46;97301.97;;;21.54;60.35
1371;BME280;14306;49.942;11.570;2023-08-31T15:58:14;97299.97;;;21.51;60.61
1371;BME280;14306;49.942;11.570;2023-08-31T16:00:43;97298.06;;;21.22;61.54
1371;BME280;14306;49.942;11.570;2023-08-31T16:03:11;97285.88;;;20.93;61.92
1371;BME280;14306;49.942;11.570;2023-08-31T16:05:39;97283.31;;;20.78;63.16
1371;BME280;14306;49.942;11.570;2023-08-31T16:08:07;97276.59;;;20.49;63.90
1371;BME280;14306;49.942;11.570;2023-08-31T16:10:36;97289.00;;;20.92;63.64
1371;BME280;14306;49.942;11.570;2023-08-31T16:13:05;97292.97;;;20.94;63.40
1371;BME280;14306;49.942;11.570;2023-08-31T16:15:32;97290.53;;;20.89;64.40
1371;BME280;14306;49.942;11.570;2023-08-31T16:18:02;97294.91;;;21.20;63.74
1371;BME280;14306;49.942;11.570;2023-08-31T16:20:30;97295.53;;;21.06;65.01
1371;BME280;14306;49.942;11.570;2023-08-31T16:22:58;97304.41;;;21.26;63.44
1371;BME280;14306;49.942;11.570;2023-08-31T16:25:26;97299.03;;;21.07;65.45
1371;BME280;14306;49.942;11.570;2023-08-31T16:27:55;97292.19;;;20.68;66.84
1371;BME280;14306;49.942;11.570;2023-08-31T16:30:23;97288.72;;;20.71;66.49
1371;BME280;14306;49.942;11.570;2023-08-31T16:32:52;97291.75;;;21.21;65.32
1371;BME280;14306;49.942;11.570;2023-08-31T16:35:20;97300.00;;;21.54;64.81
1371;BME280;14306;49.942;11.570;2023-08-31T16:37:49;97288.69;;;21.26;64.35
1371;BME280;14306;49.942;11.570;2023-08-31T16:40:17;97288.13;;;20.88;65.53
1371;BME280;14306;49.942;11.570;2023-08-31T16:42:45;97287.09;;;20.96;66.58
1371;BME280;14306;49.942;11.570;2023-08-31T16:45:15;97275.22;;;20.62;67.09
1371;BME280;14306;49.942;11.570;2023-08-31T16:47:43;97275.00;;;20.48;68.76
1371;BME280;14306;49.942;11.570;2023-08-31T16:50:11;97277.16;;;20.62;69.21
1371;BME280;14306;49.942;11.570;2023-08-31T16:52:39;97278.13;;;20.21;70.02
1371;BME280;14306;49.942;11.570;2023-08-31T16:55:07;97269.13;;;19.56;68.53
1371;BME280;14306;49.942;11.570;2023-08-31T16:57:36;97276.00;;;20.11;73.06
1371;BME280;14306;49.942;11.570;2023-08-31T17:00:05;97275.25;;;20.14;69.83
1371;BME280;14306;49.942;11.570;2023-08-31T17:02:35;97274.09;;;19.92;67.97
1371;BME280;14306;49.942;11.570;2023-08-31T17:05:04;97278.53;;;20.00;70.27
1371;BME280;14306;49.942;11.570;2023-08-31T17:07:32;97283.13;;;19.93;70.39
1371;BME280;14306;49.942;11.570;2023-08-31T17:09:59;97270.22;;;19.52;71.88
1371;BME280;14306;49.942;11.570;2023-08-31T17:12:28;97271.69;;;19.68;71.29
1371;BME280;14306;49.942;11.570;2023-08-31T17:14:58;97271.13;;;19.37;70.77
1371;BME280;14306;49.942;11.570;2023-08-31T17:17:26;97269.59;;;19.39;72.57
1371;BME280;14306;49.942;11.570;2023-08-31T17:19:59;97276.69;;;19.40;73.42
1371;BME280;14306;49.942;11.570;2023-08-31T17:22:27;97277.56;;;19.25;73.17
1371;BME280;14306;49.942;11.570;2023-08-31T17:24:55;97281.47;;;19.24;75.25
1371;BME280;14306;49.942;11.570;2023-08-31T17:27:25;97286.25;;;19.27;75.90
1371;BME280;14306;49.942;11.570;2023-08-31T17:29:52;97255.94;;;19.04;75.50
1371;BME280;14306;49.942;11.570;2023-08-31T17:32:20;97274.38;;;18.85;76.59
1371;BME280;14306;49.942;11.570;2023-08-31T17:34:48;97288.50;;;18.68;77.47
1371;BME280;14306;49.942;11.570;2023-08-31T17:37:18;97284.34;;;18.58;78.88
1371;BME280;14306;49.942;11.570;2023-08-31T17:39:46;97283.97;;;18.41;80.91
1371;BME280;14306;49.942;11.570;2023-08-31T17:42:14;97291.47;;;18.44;82.24
1371;BME280;14306;49.942;11.570;2023-08-31T17:44:41;97288.41;;;18.14;80.40
1371;BME280;14306;49.942;11.570;2023-08-31T17:47:11;97299.97;;;18.23;82.63
1371;BME280;14306;49.942;11.570;2023-08-31T17:49:41;97285.31;;;18.00;83.17
1371;BME280;14306;49.942;11.570;2023-08-31T17:52:09;97301.59;;;18.09;83.38
1371;BME280;14306;49.942;11.570;2023-08-31T17:54:38;97295.94;;;18.02;84.65
1371;BME280;14306;49.942;11.570;2023-08-31T17:57:07;97303.28;;;17.98;85.36
1371;BME280;14306;49.942;11.570;2023-08-31T17:59:36;97314.41;;;17.89;86.82
1371;BME280;14306;49.942;11.570;2023-08-31T18:02:05;97311.47;;;17.82;88.84
1371;BME280;14306;49.942;11.570;2023-08-31T18:04:35;97325.31;;;17.58;87.87
1371;BME280;14306;49.942;11.570;2023-08-31T18:07:04;97316.47;;;17.22;89.34
1371;BME280;14306;49.942;11.570;2023-08-31T18:09:34;97325.56;;;17.26;92.37
1371;BME280;14306;49.942;11.570;2023-08-31T18:12:07;97318.44;;;17.09;93.46
1371;BME280;14306;49.942;11.570;2023-08-31T18:14:36;97325.00;;;16.93;94.57
1371;BME280;14306;49.942;11.570;2023-08-31T18:17:04;97333.56;;;16.79;95.19
1371;BME280;14306;49.942;11.570;2023-08-31T18:19:32;97333.16;;;16.65;94.93
1371;BME280;14306;49.942;11.570;2023-08-31T18:22:02;97329.97;;;16.63;97.19
1371;BME280;14306;49.942;11.570;2023-08-31T18:24:30;97326.44;;;16.27;99.21
1371;BME280;14306;49.942;11.570;2023-08-31T18:26:58;97340.13;;;16.15;100.00
1371;BME280;14306;49.942;11.570;2023-08-31T18:29:27;97348.22;;;16.11;100.00
1371;BME280;14306;49.942;11.570;2023-08-31T18:31:56;97347.72;;;15.97;100.00
1371;BME280;14306;49.942;11.570;2023-08-31T18:34:24;97346.25;;;15.88;100.00
1371;BME280;14306;49.942;11.570;2023-08-31T18:36:53;97347.28;;;16.07;100.00
1371;BME280;14306;49.942;11.570;2023-08-31T18:39:22;97355.03;;;16.29;100.00
1371;BME280;14306;49.942;11.570;2023-08-31T18:41:52;97366.13;;;16.45;100.00
1371;BME280;14306;49.942;11.570;2023-08-31T18:44:20;97366.91;;;16.57;100.00
1371;BME280;14306;49.942;11.570;2023-08-31T18:46:50;97370.75;;;16.56;100.00
1371;BME280;14306;49.942;11.570;2023-08-31T18:49:18;97373.41;;;16.53;100.00
1371;BME280;14306;49.942;11.570;2023-08-31T18:51:46;97371.22;;;16.34;100.00
1371;BME280;14306;49.942;11.570;2023-08-31T18:54:14;97376.72;;;16.46;100.00
1371;BME280;14306;49.942;11.570;2023-08-31T18:56:43;97370.00;;;16.44;100.00
1371;BME280;14306;49.942;11.570;2023-08-31T18:59:11;97365.09;;;16.61;100.00
1371;BME280;14306;49.942;11.570;2023-08-31T19:01:39;97379.78;;;16.57;100.00
1371;BME280;14306;49.942;11.570;2023-08-31T19:04:08;97380.22;;;16.71;100.00
1371;BME280;14306;49.942;11.570;2023-08-31T19:06:36;97379.53;;;16.74;100.00
1371;BME280;14306;49.942;11.570;2023-08-31T19:09:04;97373.94;;;16.82;100.00
1371;BME280;14306;49.942;11.570;2023-08-31T19:11:32;97381.78;;;16.96;100.00
1371;BME280;14306;49.942;11.570;2023-08-31T19:14:00;97380.78;;;16.88;100.00
1371;BME280;14306;49.942;11.570;2023-08-31T19:16:28;97376.78;;;16.74;100.00
1371;BME280;14306;49.942;11.570;2023-08-31T19:18:59;97380.81;;;17.16;100.00
1371;BME280;14306;49.942;11.570;2023-08-31T19:21:31;97386.28;;;17.16;100.00
1371;BME280;14306;49.942;11.570;2023-08-31T19:24:00;97380.63;;;16.97;100.00
1371;BME280;14306;49.942;11.570;2023-08-31T19:26:29;97386.84;;;17.21;100.00
1371;BME280;14306;49.942;11.570;2023-08-31T19:29:00;97389.56;;;17.33;100.00
1371;BME280;14306;49.942;11.570;2023-08-31T19:31:29;97399.22;;;17.31;100.00
1371;BME280;14306;49.942;11.570;2023-08-31T19:33:59;97415.31;;;17.44;99.90
1371;BME280;14306;49.942;11.570;2023-08-31T19:36:26;97405.72;;;17.38;100.00
1371;BME280;14306;49.942;11.570;2023-08-31T19:38:56;97417.13;;;17.52;99.45
1371;BME280;14306;49.942;11.570;2023-08-31T19:41:24;97406.41;;;17.47;100.00
1371;BME280;14306;49.942;11.570;2023-08-31T19:43:55;97406.31;;;17.32;100.00
1371;BME280;14306;49.942;11.570;2023-08-31T19:46:24;97411.56;;;17.92;99.53
1371;BME280;14306;49.942;11.570;2023-08-31T19:48:51;97407.22;;;17.91;96.86
1371;BME280;14306;49.942;11.570;2023-08-31T19:51:21;97402.78;;;17.71;95.05
1371;BME280;14306;49.942;11.570;2023-08-31T19:53:49;97399.13;;;17.67;96.74
1371;BME280;14306;49.942;11.570;2023-08-31T19:56:18;97397.16;;;17.52;98.00
1371;BME280;14306;49.942;11.570;2023-08-31T19:58:46;97401.63;;;17.44;99.39
1371;BME280;14306;49.942;11.570;2023-08-31T20:01:14;97400.22;;;17.50;95.82
1371;BME280;14306;49.942;11.570;2023-08-31T20:03:42;97401.03;;;17.51;97.89
1371;BME280;14306;49.942;11.570;2023-08-31T20:06:10;97393.31;;;17.41;100.00
1371;BME280;14306;49.942;11.570;2023-08-31T20:08:38;97399.78;;;17.09;100.00
1371;BME280;14306;49.942;11.570;2023-08-31T20:11:06;97408.53;;;17.14;100.00
1371;BME280;14306;49.942;11.570;2023-08-31T20:13:36;97409.19;;;17.23;100.00
1371;BME280;14306;49.942;11.570;2023-08-31T20:16:04;97406.81;;;17.22;100.00
1371;BME280;14306;49.942;11.570;2023-08-31T20:18:32;97402.28;;;17.02;100.00
1371;BME280;14306;49.942;11.570;2023-08-31T20:21:00;97415.06;;;16.98;100.00
1371;BME280;14306;49.942;11.570;2023-08-31T20:23:28;97412.03;;;16.51;100.00
1371;BME280;14306;49.942;11.570;2023-08-31T20:25:56;97405.72;;;16.27;100.00
1371;BME280;14306;49.942;11.570;2023-08-31T20:28:24;97415.75;;;16.35;100.00
1371;BME280;14306;49.942;11.570;2023-08-31T20:30:55;97420.63;;;16.29;100.00
1371;BME280;14306;49.942;11.570;2023-08-31T20:33:27;97414.81;;;16.31;100.00
1371;BME280;14306;49.942;11.570;2023-08-31T20:36:03;97412.97;;;16.11;100.00
1371;BME280;14306;49.942;11.570;2023-08-31T20:38:31;97421.34;;;16.26;100.00
1371;BME280;14306;49.942;11.570;2023-08-31T20:40:59;97423.53;;;15.88;100.00
1371;BME280;14306;49.942;11.570;2023-08-31T20:43:27;97423.88;;;15.54;100.00
1371;BME280;14306;49.942;11.570;2023-08-31T20:46:03;97424.81;;;15.37;100.00
1371;BME280;14306;49.942;11.570;2023-08-31T20:48:32;97426.59;;;15.54;100.00
1371;BME280;14306;49.942;11.570;2023-08-31T20:51:01;97439.69;;;15.61;100.00
1371;BME280;14306;49.942;11.570;2023-08-31T20:53:29;97431.56;;;15.52;100.00
1371;BME280;14306;49.942;11.570;2023-08-31T20:56:04;97436.88;;;15.36;100.00
1371;BME280;14306;49.942;11.570;2023-08-31T20:58:35;97430.97;;;15.67;100.00
1371;BME280;14306;49.942;11.570;2023-08-31T21:01:08;97428.63;;;15.57;100.00
1371;BME280;14306;49.942;11.570;2023-08-31T21:03:38;97417.25;;;15.14;100.00
1371;BME280;14306;49.942;11.570;2023-08-31T21:06:07;97447.25;;;14.93;100.00
1371;BME280;14306;49.942;11.570;2023-08-31T21:08:35;97435.72;;;14.88;100.00
1371;BME280;14306;49.942;11.570;2023-08-31T21:11:04;97435.63;;;14.76;100.00
1371;BME280;14306;49.942;11.570;2023-08-31T21:13:32;97437.53;;;14.55;100.00
1371;BME280;14306;49.942;11.570;2023-08-31T21:16:03;97441.28;;;14.42;100.00
1371;BME280;14306;49.942;11.570;2023-08-31T21:18:33;97439.22;;;14.39;100.00
1371;BME280;14306;49.942;11.570;2023-08-31T21:21:02;97440.25;;;14.09;100.00
1371;BME280;14306;49.942;11.570;2023-08-31T21:23:31;97447.81;;;14.03;100.00
1371;BME280;14306;49.942;11.570;2023-08-31T21:26:01;97447.06;;;13.86;100.00
1371;BME280;14306;49.942;11.570;2023-08-31T21:28:29;97446.16;;;14.11;100.00
1371;BME280;14306;49.942;11.570;2023-08-31T21:30:57;97451.66;;;14.02;100.00
1371;BME280;14306;49.942;11.570;2023-08-31T21:33:28;97452.75;;;14.01;100.00
1371;BME280;14306;49.942;11.570;2023-08-31T21:35:59;97442.34;;;14.03;100.00
1371;BME280;14306;49.942;11.570;2023-08-31T21:38:27;97450.34;;;14.08;100.00
1371;BME280;14306;49.942;11.570;2023-08-31T21:40:55;97448.06;;;14.27;100.00
1371;BME280;14306;49.942;11.570;2023-08-31T21:43:26;97461.34;;;14.37;100.00
1371;BME280;14306;49.942;11.570;2023-08-31T21:45:57;97455.09;;;14.37;100.00
1371;BME280;14306;49.942;11.570;2023-08-31T21:48:25;97461.16;;;14.42;100.00
1371;BME280;14306;49.942;11.570;2023-08-31T21:50:53;97460.38;;;14.71;100.00
1371;BME280;14306;49.942;11.570;2023-08-31T21:53:22;97470.31;;;14.75;100.00
1371;BME280;14306;49.942;11.570;2023-08-31T21:55:51;97466.72;;;14.83;100.00
1371;BME280;14306;49.942;11.570;2023-08-31T21:58:18;97465.28;;;14.86;100.00
1371;BME280;14306;49.942;11.570;2023-08-31T22:00:46;97462.63;;;14.98;100.00
1371;BME280;14306;49.942;11.570;2023-08-31T22:03:14;97462.22;;;14.87;100.00
1371;BME280;14306;49.942;11.570;2023-08-31T22:05:42;97459.94;;;14.89;100.00
1371;BME280;14306;49.942;11.570;2023-08-31T22:08:11;97461.94;;;14.80;100.00
1371;BME280;14306;49.942;11.570;2023-08-31T22:10:40;97457.28;;;14.81;100.00
1371;BME280;14306;49.942;11.570;2023-08-31T22:13:08;97456.00;;;14.78;100.00
1371;BME280;14306;49.942;11.570;2023-08-31T22:15:37;97459.81;;;14.86;100.00
1371;BME280;14306;49.942;11.570;2023-08-31T22:18:06;97462.38;;;14.82;100.00
1371;BME280;14306;49.942;11.570;2023-08-31T22:20:34;97461.28;;;14.83;100.00
1371;BME280;14306;49.942;11.570;2023-08-31T22:23:05;97465.56;;;14.93;100.00
1371;BME280;14306;49.942;11.570;2023-08-31T22:25:33;97466.28;;;15.02;100.00
1371;BME280;14306;49.942;11.570;2023-08-31T22:28:03;97454.84;;;15.08;100.00
1371;BME280;14306;49.942;11.570;2023-08-31T22:30:31;97466.31;;;15.22;100.00
1371;BME280;14306;49.942;11.570;2023-08-31T22:32:59;97464.25;;;15.19;100.00
1371;BME280;14306;49.942;11.570;2023-08-31T22:35:27;97457.84;;;15.15;100.00
1371;BME280;14306;49.942;11.570;2023-08-31T22:37:58;97461.31;;;15.24;100.00
1371;BME280;14306;49.942;11.570;2023-08-31T22:40:26;97463.97;;;15.33;100.00
1371;BME280;14306;49.942;11.570;2023-08-31T22:42:54;97459.19;;;15.30;100.00
1371;BME280;14306;49.942;11.570;2023-08-31T22:45:24;97458.72;;;15.07;100.00
1371;BME280;14306;49.942;11.570;2023-08-31T22:47:52;97455.16;;;14.86;100.00
1371;BME280;14306;49.942;11.570;2023-08-31T22:50:20;97449.47;;;15.00;100.00
1371;BME280;14306;49.942;11.570;2023-08-31T22:52:48;97453.84;;;14.92;100.00
1371;BME280;14306;49.942;11.570;2023-08-31T22:55:16;97448.78;;;15.03;100.00
1371;BME280;14306;49.942;11.570;2023-08-31T22:57:44;97451.72;;;14.98;100.00
1371;BME280;14306;49.942;11.570;2023-08-31T23:00:13;97441.00;;;14.93;100.00
1371;BME280;14306;49.942;11.570;2023-08-31T23:02:42;97445.31;;;14.94;100.00
1371;BME280;14306;49.942;11.570;2023-08-31T23:05:11;97447.06;;;14.98;100.00
1371;BME280;14306;49.942;11.570;2023-08-31T23:07:38;97446.81;;;15.12;100.00
1371;BME280;14306;49.942;11.570;2023-08-31T23:10:08;97448.41;;;15.33;100.00
1371;BME280;14306;49.942;11.570;2023-08-31T23:12:48;97452.63;;;15.31;100.00
1371;BME280;14306;49.942;11.570;2023-08-31T23:15:16;97449.59;;;15.24;100.00
1371;BME280;14306;49.942;11.570;2023-08-31T23:17:47;97454.19;;;15.32;100.00
1371;BME280;14306;49.942;11.570;2023-08-31T23:20:15;97445.09;;;15.28;100.00
1371;BME280;14306;49.942;11.570;2023-08-31T23:22:44;97441.44;;;15.24;100.00
1371;BME280;14306;49.942;11.570;2023-08-31T23:25:13;97447.47;;;15.29;100.00
1371;BME280;14306;49.942;11.570;2023-08-31T23:27:40;97440.16;;;15.21;100.00
1371;BME280;14306;49.942;11.570;2023-08-31T23:30:09;97438.63;;;15.12;100.00
1371;BME280;14306;49.942;11.570;2023-08-31T23:32:37;97451.25;;;15.16;100.00
1371;BME280;14306;49.942;11.570;2023-08-31T23:35:07;97445.47;;;15.18;100.00
1371;BME280;14306;49.942;11.570;2023-08-31T23:37:35;97443.56;;;15.18;100.00
1371;BME280;14306;49.942;11.570;2023-08-31T23:40:04;97445.94;;;15.20;100.00
1371;BME280;14306;49.942;11.570;2023-08-31T23:42:36;97442.41;;;15.19;100.00
1371;BME280;14306;49.942;11.570;2023-08-31T23:45:07;97434.28;;;15.11;100.00
1371;BME280;14306;49.942;11.570;2023-08-31T23:47:35;97444.75;;;15.09;100.00
1371;BME280;14306;49.942;11.570;2023-08-31T23:50:05;97436.03;;;15.15;100.00
1371;BME280;14306;49.942;11.570;2023-08-31T23:52:35;97444.69;;;15.17;100.00
1371;BME280;14306;49.942;11.570;2023-08-31T23:55:02;97453.53;;;15.14;100.00
1371;BME280;14306;49.942;11.570;2023-08-31T23:57:31;97439.03;;;15.22;100.00
1371;BME280;14306;49.942;11.570;2023-08-31T23:59:59;97439.63;;;15.28;100.00
